Time;durP1;ratioP1;P1;durP2;ratioP2;P2;SDS_P1;SDS_P2;PMS_P1;PMS_P2;Temp;Humidity;BMP_temperature;BMP_pressure;BME280_temperature;BME280_humidity;BME280_pressure;Samples;Min_cycle;Max_cycle;Signal;HPM_P1;HPM_P2
2023/07/29 00:01:35;;;;;;;4.82;2.30;;;22.90;99.90;;;;;;5050973;28;20119;-60
2023/07/29 00:04:01;;;;;;;4.43;2.22;;;22.90;99.90;;;;;;5052265;28;20025;-60
2023/07/29 00:06:27;;;;;;;5.28;2.22;;;23.00;99.90;;;;;;5052224;28;20379;-60
2023/07/29 00:08:53;;;;;;;3.58;1.95;;;23.00;99.90;;;;;;5052128;28;20048;-60
2023/07/29 00:11:19;;;;;;;4.65;2.30;;;23.00;99.90;;;;;;5052332;28;20482;-60
2023/07/29 00:13:44;;;;;;;6.38;2.50;;;23.00;99.90;;;;;;5051405;28;20124;-61
2023/07/29 00:16:10;;;;;;;5.65;2.63;;;23.00;99.90;;;;;;5052155;28;20039;-60
2023/07/29 00:18:36;;;;;;;6.93;2.88;;;23.00;99.90;;;;;;5051925;28;20025;-60
2023/07/29 00:21:02;;;;;;;5.57;3.00;;;22.90;99.90;;;;;;5052267;28;20484;-61
2023/07/29 00:23:27;;;;;;;4.95;2.80;;;22.80;99.90;;;;;;5050478;28;20151;-60
2023/07/29 00:25:53;;;;;;;7.43;3.20;;;22.80;99.90;;;;;;5051916;28;20474;-60
2023/07/29 00:28:19;;;;;;;5.75;2.85;;;22.60;99.90;;;;;;5051792;28;20035;-60
2023/07/29 00:30:44;;;;;;;4.57;2.90;;;22.40;99.90;;;;;;5051763;28;20102;-60
2023/07/29 00:33:10;;;;;;;5.93;3.17;;;22.30;99.90;;;;;;5051630;28;20031;-60
2023/07/29 00:35:36;;;;;;;6.75;3.15;;;22.20;99.90;;;;;;5051688;28;20067;-60
2023/07/29 00:38:01;;;;;;;5.13;3.20;;;22.20;99.90;;;;;;5052041;28;20040;-61
2023/07/29 00:40:28;;;;;;;5.88;3.08;;;22.10;99.90;;;;;;5051672;28;20025;-61
2023/07/29 00:42:54;;;;;;;4.65;3.10;;;22.00;99.90;;;;;;5051302;28;20068;-60
2023/07/29 00:45:20;;;;;;;5.13;3.25;;;22.00;99.90;;;;;;5051497;28;20052;-60
2023/07/29 00:47:46;;;;;;;5.65;3.45;;;22.00;99.90;;;;;;5051492;28;20143;-61
2023/07/29 00:50:14;;;;;;;5.40;3.85;;;22.00;99.90;;;;;;5051352;28;20028;-60
2023/07/29 00:52:40;;;;;;;5.60;3.40;;;21.90;99.90;;;;;;5051321;28;20025;-60
2023/07/29 00:55:07;;;;;;;5.15;3.45;;;21.90;99.90;;;;;;5051218;28;20025;-61
2023/07/29 00:57:33;;;;;;;6.75;3.85;;;21.90;99.90;;;;;;5050867;28;20563;-61
2023/07/29 01:00:00;;;;;;;5.32;3.58;;;21.90;99.90;;;;;;5051643;28;20021;-61
2023/07/29 01:02:26;;;;;;;5.82;3.75;;;21.80;99.90;;;;;;5051323;28;20059;-61
2023/07/29 01:04:57;;;;;;;7.25;3.80;;;21.80;99.90;;;;;;5051142;28;20029;-61
2023/07/29 01:07:43;;;;;;;5.35;3.85;;;21.80;99.90;;;;;;5051681;28;20033;-61
2023/07/29 01:10:24;;;;;;;6.38;3.55;;;21.80;99.90;;;;;;5051442;28;20424;-60
2023/07/29 01:13:19;;;;;;;4.93;3.60;;;22.00;99.90;;;;;;5050677;28;20032;-61
2023/07/29 01:16:09;;;;;;;7.35;4.45;;;22.10;99.90;;;;;;5051069;28;20045;-60
2023/07/29 01:18:38;;;;;;;3.95;3.53;;;22.20;99.90;;;;;;5049754;28;20427;-60
2023/07/29 01:21:07;;;;;;;5.93;3.55;;;22.30;99.90;;;;;;5050987;28;20032;-59
2023/07/29 01:23:36;;;;;;;5.13;4.03;;;22.40;99.90;;;;;;5050790;28;20055;-60
2023/07/29 01:26:03;;;;;;;5.18;3.55;;;22.40;99.90;;;;;;5051046;28;20082;-60
2023/07/29 01:28:30;;;;;;;4.28;3.63;;;22.40;99.90;;;;;;5050847;28;20033;-60
2023/07/29 01:31:08;;;;;;;5.28;3.75;;;22.50;99.90;;;;;;5051046;28;20025;-60
2023/07/29 01:33:44;;;;;;;6.60;4.20;;;22.40;99.90;;;;;;5051109;28;20029;-61
2023/07/29 01:36:18;;;;;;;6.43;4.30;;;22.40;99.90;;;;;;5051276;28;20062;-60
2023/07/29 01:38:45;;;;;;;5.53;4.65;;;22.40;99.90;;;;;;5050829;28;20025;-61
2023/07/29 01:41:11;;;;;;;4.80;4.30;;;22.50;99.90;;;;;;5050541;28;20160;-60
2023/07/29 01:43:46;;;;;;;7.68;4.60;;;22.40;99.90;;;;;;5050788;28;20327;-60
2023/07/29 01:46:12;;;;;;;7.28;4.93;;;22.20;99.90;;;;;;5050829;28;20037;-61
2023/07/29 01:48:38;;;;;;;5.80;5.22;;;22.10;99.90;;;;;;5051019;28;20551;-61
2023/07/29 01:51:05;;;;;;;5.93;4.93;;;21.90;99.90;;;;;;5051003;28;20029;-61
2023/07/29 01:53:31;;;;;;;7.22;5.40;;;21.80;99.90;;;;;;5050761;28;20053;-61
2023/07/29 01:55:57;;;;;;;6.15;4.63;;;21.70;99.90;;;;;;5050822;28;20033;-60
2023/07/29 01:58:23;;;;;;;5.88;4.97;;;21.60;99.90;;;;;;5050654;28;20359;-61
2023/07/29 02:00:48;;;;;;;6.15;5.03;;;21.50;99.90;;;;;;5050967;28;20508;-61
2023/07/29 02:03:14;;;;;;;8.98;5.18;;;21.50;99.90;;;;;;5049490;28;20037;-61
2023/07/29 02:05:41;;;;;;;6.32;5.18;;;21.40;99.90;;;;;;5050573;28;20036;-60
2023/07/29 02:08:07;;;;;;;6.25;5.25;;;21.40;99.90;;;;;;5050618;28;20025;-61
2023/07/29 02:10:33;;;;;;;5.78;5.05;;;21.40;99.90;;;;;;5050294;28;20032;-60
2023/07/29 02:12:58;;;;;;;6.72;4.90;;;21.40;99.90;;;;;;5050466;28;20029;-61
2023/07/29 02:15:24;;;;;;;7.55;5.07;;;21.40;99.90;;;;;;5050870;28;20048;-61
2023/07/29 02:17:51;;;;;;;5.63;5.05;;;21.30;99.90;;;;;;5052155;28;20497;-60
2023/07/29 02:20:17;;;;;;;6.13;5.20;;;21.30;99.90;;;;;;5034214;28;20381;-61
2023/07/29 02:22:42;;;;;;;6.25;4.97;;;21.20;99.90;;;;;;5034122;28;20108;-61
2023/07/29 02:25:09;;;;;;;6.10;5.38;;;21.20;99.90;;;;;;5033849;28;20049;-61
2023/07/29 02:27:35;;;;;;;7.63;5.10;;;21.20;99.90;;;;;;5034557;28;20063;-60
2023/07/29 02:30:01;;;;;;;6.38;4.88;;;21.40;99.90;;;;;;5034158;28;20029;-59
2023/07/29 02:32:27;;;;;;;6.93;4.93;;;21.40;99.90;;;;;;5034052;28;20029;-60
2023/07/29 02:34:53;;;;;;;7.25;4.50;;;21.60;99.90;;;;;;5033976;28;20051;-61
2023/07/29 02:37:18;;;;;;;7.18;4.68;;;21.70;99.90;;;;;;5033864;28;20052;-60
2023/07/29 02:39:44;;;;;;;5.68;4.70;;;21.80;99.90;;;;;;5033659;28;20029;-61
2023/07/29 02:42:10;;;;;;;6.45;4.90;;;21.80;99.90;;;;;;5034223;28;20021;-61
2023/07/29 02:44:36;;;;;;;6.93;5.32;;;21.80;99.90;;;;;;5033848;28;20072;-60
2023/07/29 02:47:02;;;;;;;5.93;4.70;;;21.80;99.90;;;;;;5033834;28;20637;-60
2023/07/29 02:49:27;;;;;;;6.05;5.05;;;21.80;99.90;;;;;;5033740;28;20076;-61
2023/07/29 02:51:53;;;;;;;5.75;5.10;;;21.80;99.90;;;;;;5033973;28;20483;-61
2023/07/29 02:54:19;;;;;;;6.38;4.75;;;21.80;99.90;;;;;;5031923;28;20462;-61
2023/07/29 02:56:44;;;;;;;6.20;4.80;;;21.70;99.90;;;;;;5032400;28;20100;-60
2023/07/29 02:59:10;;;;;;;5.97;5.10;;;21.70;99.90;;;;;;5033836;28;20033;-61
2023/07/29 03:01:36;;;;;;;6.28;4.55;;;21.80;99.90;;;;;;5033912;28;20510;-60
2023/07/29 03:04:01;;;;;;;8.25;5.32;;;21.60;99.90;;;;;;5033405;28;20067;-60
2023/07/29 03:06:27;;;;;;;6.03;4.97;;;21.50;99.90;;;;;;5033421;28;20056;-60
2023/07/29 03:08:52;;;;;;;5.60;5.10;;;21.40;99.90;;;;;;5033140;28;20032;-61
2023/07/29 03:11:18;;;;;;;6.05;5.45;;;21.30;99.90;;;;;;5033642;28;20057;-60
2023/07/29 03:13:44;;;;;;;7.35;5.28;;;21.20;99.90;;;;;;5040472;28;20389;-60
2023/07/29 03:16:17;;;;;;;7.53;6.15;;;21.10;99.90;;;;;;5053051;28;20032;-61
2023/07/29 03:18:44;;;;;;;6.80;5.60;;;21.00;99.90;;;;;;5053215;28;20163;-61
2023/07/29 03:21:10;;;;;;;5.88;5.25;;;21.00;99.90;;;;;;5053717;28;20033;-60
2023/07/29 03:23:36;;;;;;;5.57;5.03;;;21.00;99.90;;;;;;5051400;28;20390;-60
2023/07/29 03:26:09;;;;;;;6.18;5.10;;;21.00;99.90;;;;;;5052990;28;20032;-60
2023/07/29 03:28:37;;;;;;;8.02;5.43;;;20.90;99.90;;;;;;5052064;28;20082;-60
2023/07/29 03:31:03;;;;;;;6.53;5.60;;;20.90;99.90;;;;;;5052648;28;20490;-60
2023/07/29 03:33:29;;;;;;;6.00;5.40;;;20.90;99.90;;;;;;5053265;28;20029;-60
2023/07/29 03:35:55;;;;;;;6.13;5.53;;;20.80;99.90;;;;;;5052878;28;20039;-60
2023/07/29 03:38:20;;;;;;;6.47;5.20;;;20.80;99.90;;;;;;5052393;28;20025;-60
2023/07/29 03:40:46;;;;;;;6.05;5.40;;;20.80;99.90;;;;;;5051337;28;20030;-61
2023/07/29 03:43:12;;;;;;;6.13;5.25;;;20.80;99.90;;;;;;5052720;28;20027;-60
2023/07/29 03:45:40;;;;;;;6.25;5.60;;;20.90;99.90;;;;;;5052626;28;20036;-60
2023/07/29 03:48:06;;;;;;;6.30;5.53;;;21.00;99.90;;;;;;5052861;28;20028;-60
2023/07/29 03:50:35;;;;;;;6.53;5.38;;;21.20;99.90;;;;;;5052378;28;20025;-60
2023/07/29 03:53:01;;;;;;;7.03;5.45;;;21.30;99.90;;;;;;5052263;28;20067;-60
2023/07/29 03:55:29;;;;;;;6.25;5.28;;;21.40;99.90;;;;;;5052543;28;20033;-60
2023/07/29 03:57:56;;;;;;;8.40;5.20;;;21.50;99.90;;;;;;5052859;28;20036;-61
2023/07/29 04:00:21;;;;;;;6.95;5.28;;;21.60;99.90;;;;;;5052252;28;20031;-60
2023/07/29 04:02:47;;;;;;;7.03;4.90;;;21.60;99.90;;;;;;5052186;28;20044;-60
2023/07/29 04:05:13;;;;;;;6.57;4.82;;;21.60;99.90;;;;;;5052545;28;20035;-61
2023/07/29 04:07:39;;;;;;;6.18;5.57;;;21.60;99.90;;;;;;5051900;28;20029;-60
2023/07/29 04:10:06;;;;;;;6.78;5.30;;;21.60;99.90;;;;;;5052078;28;20036;-60
2023/07/29 04:12:31;;;;;;;7.18;5.20;;;21.60;99.90;;;;;;5052402;28;20490;-61
2023/07/29 04:14:57;;;;;;;7.22;5.30;;;21.70;99.90;;;;;;5051925;28;20079;-61
2023/07/29 04:17:23;;;;;;;5.32;4.85;;;21.70;99.90;;;;;;5051996;28;20401;-61
2023/07/29 04:19:48;;;;;;;6.22;5.10;;;21.60;99.90;;;;;;5051724;28;20035;-60
2023/07/29 04:22:15;;;;;;;6.63;5.25;;;21.50;99.90;;;;;;5051524;28;20025;-61
2023/07/29 04:24:41;;;;;;;6.43;5.45;;;21.30;99.90;;;;;;5051733;28;20036;-60
2023/07/29 04:27:07;;;;;;;6.00;5.20;;;21.20;99.90;;;;;;5051225;28;20083;-60
2023/07/29 04:29:32;;;;;;;7.07;5.10;;;21.10;99.90;;;;;;5051860;28;20478;-61
2023/07/29 04:31:58;;;;;;;5.68;5.15;;;21.10;99.90;;;;;;5051776;28;20098;-60
2023/07/29 04:34:24;;;;;;;6.72;5.72;;;21.00;99.90;;;;;;5051492;28;20553;-60
2023/07/29 04:36:49;;;;;;;7.32;5.75;;;20.90;99.90;;;;;;5051268;28;20017;-61
2023/07/29 04:39:15;;;;;;;7.50;5.22;;;20.90;99.90;;;;;;5051678;28;20486;-60
2023/07/29 04:41:41;;;;;;;6.32;5.30;;;20.90;99.90;;;;;;5051630;28;20025;-60
2023/07/29 04:44:07;;;;;;;8.40;6.03;;;20.80;99.90;;;;;;5051593;28;20078;-61
2023/07/29 04:46:33;;;;;;;6.25;5.57;;;20.80;99.90;;;;;;5051474;28;20086;-61
2023/07/29 04:48:59;;;;;;;7.30;5.68;;;20.80;99.90;;;;;;5051561;28;20029;-60
2023/07/29 04:51:24;;;;;;;7.85;5.63;;;20.80;99.90;;;;;;5051324;28;20108;-60
2023/07/29 04:53:51;;;;;;;9.15;5.65;;;20.80;99.90;;;;;;5051426;28;20033;-61
2023/07/29 04:56:16;;;;;;;6.55;5.40;;;20.70;99.90;;;;;;5051252;28;20040;-60
2023/07/29 04:58:42;;;;;;;6.35;5.68;;;20.70;99.90;;;;;;5051262;28;20020;-60
2023/07/29 05:01:08;;;;;;;7.72;5.47;;;20.70;99.90;;;;;;5051166;28;20032;-61
2023/07/29 05:03:33;;;;;;;5.68;5.03;;;20.90;99.90;;;;;;5051288;28;20071;-60
2023/07/29 05:05:59;;;;;;;6.88;5.30;;;21.00;99.90;;;;;;5050924;28;20025;-60
2023/07/29 05:08:28;;;;;;;5.90;5.30;;;21.20;99.90;;;;;;5049902;28;20017;-61
2023/07/29 05:10:54;;;;;;;6.60;4.70;;;21.20;99.90;;;;;;5051120;28;20025;-60
2023/07/29 05:13:20;;;;;;;5.72;4.90;;;21.30;99.90;;;;;;5051482;28;20049;-60
2023/07/29 05:15:48;;;;;;;9.10;5.15;;;21.40;99.90;;;;;;5051120;28;20055;-60
2023/07/29 05:18:14;;;;;;;8.20;4.80;;;21.40;99.90;;;;;;5050651;28;20021;-59
2023/07/29 05:20:40;;;;;;;7.70;5.07;;;21.60;99.90;;;;;;5051068;28;20619;-60
2023/07/29 05:23:06;;;;;;;6.47;5.30;;;21.60;99.90;;;;;;5051109;28;20051;-60
2023/07/29 05:25:31;;;;;;;7.30;5.28;;;21.50;99.90;;;;;;5051262;28;20136;-60
2023/07/29 05:27:57;;;;;;;5.97;5.18;;;21.50;99.90;;;;;;5051015;28;20041;-60
2023/07/29 05:30:23;;;;;;;5.38;4.88;;;21.50;99.90;;;;;;5050962;28;20025;-61
2023/07/29 05:32:49;;;;;;;6.28;5.10;;;21.40;99.90;;;;;;5050989;28;20025;-61
2023/07/29 05:35:14;;;;;;;6.82;4.80;;;21.60;99.90;;;;;;5050825;28;20052;-60
2023/07/29 05:37:40;;;;;;;5.60;4.70;;;21.50;99.90;;;;;;5050967;28;20017;-61
2023/07/29 05:40:07;;;;;;;6.85;5.22;;;21.30;99.90;;;;;;5050821;28;20081;-61
2023/07/29 05:42:33;;;;;;;9.32;5.53;;;21.20;99.90;;;;;;5051212;28;20033;-61
2023/07/29 05:44:58;;;;;;;6.45;4.65;;;21.10;99.90;;;;;;5050421;28;20104;-60
2023/07/29 05:47:24;;;;;;;5.97;4.78;;;21.10;99.90;;;;;;5050967;28;20108;-60
2023/07/29 05:49:50;;;;;;;6.55;5.00;;;21.10;99.90;;;;;;5050931;28;20098;-61
2023/07/29 05:52:16;;;;;;;7.45;4.90;;;21.10;99.90;;;;;;5051396;28;20043;-61
2023/07/29 05:54:42;;;;;;;5.63;4.38;;;21.00;99.90;;;;;;5054665;28;20514;-60
2023/07/29 05:57:09;;;;;;;5.45;4.70;;;21.00;99.90;;;;;;5054672;28;20033;-61
2023/07/29 05:59:35;;;;;;;6.88;4.90;;;21.00;99.90;;;;;;5054868;28;20025;-61
2023/07/29 06:02:01;;;;;;;5.15;4.38;;;21.00;99.90;;;;;;5054555;28;20608;-60
2023/07/29 06:04:27;;;;;;;6.68;4.43;;;20.90;99.90;;;;;;5054877;28;20029;-60
2023/07/29 06:06:52;;;;;;;6.45;4.95;;;21.00;99.90;;;;;;5054460;28;20029;-61
2023/07/29 06:09:18;;;;;;;6.63;4.47;;;20.90;99.90;;;;;;5054489;28;20021;-60
2023/07/29 06:11:44;;;;;;;4.85;4.07;;;21.00;99.90;;;;;;5054380;28;20029;-60
2023/07/29 06:14:09;;;;;;;5.82;4.70;;;21.00;99.90;;;;;;5052681;28;20087;-60
2023/07/29 06:16:35;;;;;;;5.97;4.75;;;21.00;99.90;;;;;;5054339;28;20029;-60
2023/07/29 06:19:01;;;;;;;7.07;4.50;;;21.10;99.90;;;;;;5054120;28;20393;-60
2023/07/29 06:21:26;;;;;;;5.90;4.70;;;21.20;99.90;;;;;;5054126;28;20494;-60
2023/07/29 06:23:52;;;;;;;6.85;4.60;;;21.30;99.90;;;;;;5054082;28;20514;-61
2023/07/29 06:26:18;;;;;;;7.38;4.38;;;21.60;99.90;;;;;;5054051;28;20296;-60
2023/07/29 06:28:44;;;;;;;6.05;4.40;;;21.70;99.90;;;;;;5054187;28;20029;-60
2023/07/29 06:31:10;;;;;;;5.43;3.95;;;21.70;99.90;;;;;;5054104;28;20021;-60
2023/07/29 06:33:35;;;;;;;5.78;4.18;;;21.80;99.90;;;;;;5053875;28;20061;-60
2023/07/29 06:36:01;;;;;;;7.22;4.43;;;21.80;99.90;;;;;;5053807;28;20487;-60
2023/07/29 06:38:27;;;;;;;7.00;4.50;;;21.90;99.90;;;;;;5053995;28;20031;-60
2023/07/29 06:40:52;;;;;;;6.60;4.55;;;21.80;99.90;;;;;;5053760;28;20033;-61
2023/07/29 06:43:18;;;;;;;6.05;4.88;;;21.90;99.90;;;;;;5054111;28;20456;-60
2023/07/29 06:45:44;;;;;;;7.28;5.47;;;21.90;99.90;;;;;;5053543;28;20474;-60
2023/07/29 06:48:10;;;;;;;7.28;5.93;;;21.90;99.90;;;;;;5053619;28;20032;-61
2023/07/29 06:50:35;;;;;;;7.18;5.40;;;21.90;99.90;;;;;;5053634;28;20032;-61
2023/07/29 06:53:01;;;;;;;11.30;5.88;;;21.80;99.90;;;;;;5053587;28;20032;-60
2023/07/29 06:55:27;;;;;;;8.07;6.55;;;21.70;99.90;;;;;;5053502;28;20659;-61
2023/07/29 06:57:52;;;;;;;8.30;6.35;;;21.60;99.90;;;;;;5053584;28;20021;-61
2023/07/29 07:00:18;;;;;;;9.20;7.00;;;21.60;99.90;;;;;;5053495;28;20490;-60
2023/07/29 07:02:44;;;;;;;6.90;6.20;;;21.50;99.90;;;;;;5053298;28;20029;-61
2023/07/29 07:05:09;;;;;;;8.32;6.05;;;21.50;99.90;;;;;;5053386;28;20036;-60
2023/07/29 07:07:35;;;;;;;7.60;6.07;;;21.50;99.90;;;;;;5053884;28;20045;-60
2023/07/29 07:10:01;;;;;;;8.90;6.57;;;21.50;99.90;;;;;;5053386;28;20104;-60
2023/07/29 07:12:26;;;;;;;6.97;6.13;;;21.60;99.90;;;;;;5053143;28;20029;-60
2023/07/29 07:14:52;;;;;;;7.13;6.20;;;21.60;99.90;;;;;;5051406;28;20048;-60
2023/07/29 07:17:18;;;;;;;8.68;6.10;;;21.60;99.90;;;;;;5053575;28;20096;-60
2023/07/29 07:19:44;;;;;;;6.50;5.80;;;21.70;99.90;;;;;;5052785;28;20021;-61
2023/07/29 07:22:09;;;;;;;7.95;5.93;;;21.70;99.90;;;;;;5053203;28;20104;-60
2023/07/29 07:24:35;;;;;;;9.70;5.90;;;21.80;99.90;;;;;;5052791;28;20508;-61
2023/07/29 07:27:01;;;;;;;6.95;5.68;;;21.90;99.90;;;;;;5053390;28;20140;-61
2023/07/29 07:29:27;;;;;;;6.90;5.50;;;22.00;99.90;;;;;;5052444;28;20040;-61
2023/07/29 07:31:54;;;;;;;6.10;5.32;;;22.10;99.90;;;;;;5053012;28;20025;-60
2023/07/29 07:34:20;;;;;;;5.85;5.03;;;22.20;99.90;;;;;;5053043;28;20036;-60
2023/07/29 07:36:46;;;;;;;6.35;5.20;;;22.40;99.90;;;;;;5052372;28;20021;-61
2023/07/29 07:39:12;;;;;;;5.20;4.60;;;22.50;99.90;;;;;;5053423;28;20458;-60
2023/07/29 07:41:38;;;;;;;7.00;4.45;;;22.60;99.90;;;;;;5052455;28;20028;-60
2023/07/29 07:44:04;;;;;;;5.75;4.47;;;22.80;99.90;;;;;;5052367;28;20186;-60
2023/07/29 07:46:29;;;;;;;6.53;4.60;;;22.80;99.90;;;;;;5052641;28;20529;-61
2023/07/29 07:48:55;;;;;;;6.03;4.03;;;22.90;99.90;;;;;;5052472;28;20029;-60
2023/07/29 07:51:21;;;;;;;6.50;4.30;;;23.00;99.90;;;;;;5052888;28;20029;-60
2023/07/29 07:53:46;;;;;;;5.40;4.43;;;23.10;99.90;;;;;;5052359;28;20085;-60
2023/07/29 07:56:12;;;;;;;4.15;3.75;;;23.20;99.90;;;;;;5052606;28;20109;-60
2023/07/29 07:58:39;;;;;;;5.57;4.40;;;23.20;99.90;;;;;;5052047;28;20490;-60
2023/07/29 08:01:08;;;;;;;6.47;4.18;;;23.30;99.90;;;;;;5051414;28;20078;-60
2023/07/29 08:03:35;;;;;;;5.00;3.83;;;23.40;99.90;;;;;;5052374;28;20025;-60
2023/07/29 08:06:01;;;;;;;4.85;3.85;;;23.50;99.90;;;;;;5052362;28;20051;-60
2023/07/29 08:08:28;;;;;;;5.70;4.18;;;23.50;99.90;;;;;;5052601;28;20027;-61
2023/07/29 08:10:54;;;;;;;5.18;3.40;;;23.60;99.90;;;;;;5051985;28;20045;-60
2023/07/29 08:13:21;;;;;;;6.00;4.40;;;23.50;99.90;;;;;;5051738;28;20031;-61
2023/07/29 08:15:48;;;;;;;4.68;3.70;;;23.50;99.90;;;;;;5051265;28;20120;-60
2023/07/29 08:18:14;;;;;;;4.47;3.55;;;23.50;99.90;;;;;;5052234;28;20068;-60
2023/07/29 08:20:39;;;;;;;4.43;3.40;;;23.40;99.90;;;;;;5051888;28;20493;-61
2023/07/29 08:23:05;;;;;;;5.10;3.55;;;23.50;99.90;;;;;;5051989;28;20102;-61
2023/07/29 08:25:31;;;;;;;6.55;3.55;;;23.40;99.90;;;;;;5051474;28;20061;-60
2023/07/29 08:27:56;;;;;;;5.22;3.45;;;23.40;99.90;;;;;;5052162;28;20468;-60
2023/07/29 08:30:22;;;;;;;4.75;3.20;;;23.40;99.90;;;;;;5051817;28;20078;-61
2023/07/29 08:32:48;;;;;;;4.00;3.28;;;23.30;99.90;;;;;;5051319;28;20048;-60
2023/07/29 08:35:14;;;;;;;4.53;3.08;;;23.40;99.90;;;;;;5052082;28;20406;-60
2023/07/29 08:37:39;;;;;;;5.28;3.15;;;23.30;99.90;;;;;;5051645;28;20025;-60
2023/07/29 08:40:06;;;;;;;5.13;2.97;;;23.30;99.90;;;;;;5051467;28;20045;-60
2023/07/29 08:42:33;;;;;;;4.00;3.10;;;23.30;99.90;;;;;;5051658;28;20021;-61
2023/07/29 08:45:08;;;;;;;4.22;3.33;;;23.30;99.90;;;;;;5051463;28;20028;-61
2023/07/29 08:47:33;;;;;;;5.07;3.42;;;23.50;99.90;;;;;;5051489;28;20440;-60
2023/07/29 08:50:02;;;;;;;5.80;3.45;;;23.50;99.90;;;;;;5051362;28;20112;-60
2023/07/29 08:52:31;;;;;;;3.83;3.25;;;23.50;99.90;;;;;;5051847;28;20059;-60
2023/07/29 08:54:58;;;;;;;3.95;3.40;;;23.60;99.90;;;;;;5051181;28;20033;-60
2023/07/29 08:57:24;;;;;;;3.30;3.00;;;23.80;99.90;;;;;;5051102;28;20048;-60
2023/07/29 08:59:50;;;;;;;2.92;2.63;;;23.90;99.90;;;;;;5051327;28;20086;-60
2023/07/29 09:02:15;;;;;;;4.60;3.00;;;24.10;99.90;;;;;;5051739;28;20025;-60
2023/07/29 09:04:42;;;;;;;4.15;3.10;;;24.10;99.90;;;;;;5051455;28;20033;-61
2023/07/29 09:07:09;;;;;;;3.67;3.00;;;24.20;99.90;;;;;;5051424;28;20055;-61
2023/07/29 09:09:34;;;;;;;3.70;2.80;;;24.20;99.90;;;;;;5051023;28;20041;-60
2023/07/29 09:12:00;;;;;;;3.83;3.20;;;24.30;99.90;;;;;;5051298;28;20100;-60
2023/07/29 09:14:27;;;;;;;3.67;3.20;;;24.40;99.90;;;;;;5050959;28;20075;-60
2023/07/29 09:16:53;;;;;;;4.90;3.00;;;24.40;99.90;;;;;;5051156;28;20021;-60
2023/07/29 09:19:19;;;;;;;4.18;2.58;;;24.40;99.90;;;;;;5051101;28;20062;-60
2023/07/29 09:21:46;;;;;;;2.85;2.55;;;24.50;99.90;;;;;;5051635;28;20104;-60
2023/07/29 09:24:17;;;;;;;3.22;2.90;;;24.60;99.90;;;;;;5050800;28;20056;-60
2023/07/29 09:26:50;;;;;;;3.40;2.50;;;24.50;99.90;;;;;;5052278;28;20028;-60
2023/07/29 09:29:21;;;;;;;3.95;2.67;;;24.50;99.90;;;;;;5055740;28;20021;-60
2023/07/29 09:31:47;;;;;;;3.13;2.78;;;24.60;99.90;;;;;;5055290;28;20393;-60
2023/07/29 09:34:16;;;;;;;3.53;2.90;;;24.60;99.90;;;;;;5055092;28;20555;-60
2023/07/29 09:36:42;;;;;;;4.03;2.90;;;24.60;99.90;;;;;;5054965;28;20029;-60
2023/07/29 09:39:12;;;;;;;5.07;2.78;;;24.70;99.90;;;;;;5055037;28;20056;-60
2023/07/29 09:41:38;;;;;;;4.18;2.80;;;24.70;99.90;;;;;;5055294;28;20482;-60
2023/07/29 09:44:05;;;;;;;4.00;2.60;;;24.60;99.90;;;;;;5054920;28;20031;-61
2023/07/29 09:46:36;;;;;;;4.55;2.72;;;24.60;99.90;;;;;;5055018;28;20052;-61
2023/07/29 09:49:07;;;;;;;3.47;2.38;;;24.70;99.90;;;;;;5055191;28;20033;-60
2023/07/29 09:51:37;;;;;;;4.03;2.50;;;24.70;99.90;;;;;;5054601;28;20041;-61
2023/07/29 09:54:04;;;;;;;4.10;2.80;;;24.70;99.90;;;;;;5054383;28;20037;-61
2023/07/29 09:56:30;;;;;;;2.83;2.40;;;24.80;99.90;;;;;;5054671;28;20025;-61
2023/07/29 09:58:57;;;;;;;5.10;2.55;;;24.80;99.90;;;;;;5054984;28;20037;-60
2023/07/29 10:01:23;;;;;;;2.95;2.40;;;25.00;99.90;;;;;;5054575;28;20057;-61
2023/07/29 10:03:49;;;;;;;3.88;2.50;;;25.10;99.90;;;;;;5054724;28;20104;-61
2023/07/29 10:06:15;;;;;;;4.45;2.72;;;25.10;99.90;;;;;;5054403;28;20499;-61
2023/07/29 10:08:43;;;;;;;4.10;2.47;;;25.10;99.90;;;;;;5054518;28;20024;-61
2023/07/29 10:11:10;;;;;;;5.15;2.58;;;25.00;99.90;;;;;;5054682;28;20028;-61
2023/07/29 10:13:37;;;;;;;4.47;2.60;;;25.00;99.90;;;;;;5054277;28;20020;-61
2023/07/29 10:16:04;;;;;;;4.88;2.47;;;25.10;99.90;;;;;;5054285;28;20509;-61
2023/07/29 10:18:31;;;;;;;2.95;2.13;;;25.10;99.90;;;;;;5054637;28;20478;-60
2023/07/29 10:20:59;;;;;;;4.25;2.67;;;25.20;99.90;;;;;;5054008;28;20029;-61
2023/07/29 10:23:32;;;;;;;3.10;2.53;;;25.40;99.90;;;;;;5053779;28;20696;-60
2023/07/29 10:26:05;;;;;;;3.67;2.33;;;25.40;99.90;;;;;;5054162;28;20453;-60
2023/07/29 10:28:32;;;;;;;4.97;3.38;;;25.50;99.90;;;;;;5054557;28;20036;-61
2023/07/29 10:30:59;;;;;;;4.05;2.60;;;25.60;99.90;;;;;;5054064;28;20538;-61
2023/07/29 10:33:25;;;;;;;4.00;2.60;;;25.50;99.90;;;;;;5054078;28;20025;-61
2023/07/29 10:35:53;;;;;;;3.67;2.42;;;25.50;99.90;;;;;;5053943;28;20039;-61
2023/07/29 10:38:21;;;;;;;4.45;2.67;;;25.70;99.90;;;;;;5052858;28;20039;-61
2023/07/29 10:40:57;;;;;;;4.25;2.75;;;25.70;99.90;;;;;;5052900;28;20036;-60
2023/07/29 10:43:34;;;;;;;4.15;3.00;;;25.70;99.90;;;;;;5053681;28;20024;-61
2023/07/29 10:46:22;;;;;;;5.10;2.90;;;25.90;99.90;;;;;;5053831;28;20136;-60
2023/07/29 10:48:53;;;;;;;7.35;3.90;;;25.80;99.90;;;;;;5053772;28;20029;-60
2023/07/29 10:51:34;;;;;;;5.95;3.50;;;25.80;99.90;;;;;;5053529;28;20013;-61
2023/07/29 10:54:09;;;;;;;6.50;3.35;;;26.00;99.90;;;;;;5053349;28;20520;-61
2023/07/29 10:56:36;;;;;;;4.75;3.33;;;26.00;99.90;;;;;;5054005;28;20053;-60
2023/07/29 10:59:11;;;;;;;4.82;3.00;;;26.00;99.90;;;;;;5053588;28;20032;-61
2023/07/29 11:01:39;;;;;;;5.25;2.75;;;26.00;99.90;;;;;;5053411;28;20574;-61
2023/07/29 11:04:20;;;;;;;5.78;3.42;;;26.00;99.90;;;;;;5053779;28;20375;-60
2023/07/29 11:07:04;;;;;;;2.75;2.28;;;25.90;99.90;;;;;;5052927;28;20033;-61
2023/07/29 11:09:49;;;;;;;4.72;2.60;;;25.80;99.90;;;;;;5053276;28;20017;-61
2023/07/29 11:12:40;;;;;;;5.03;2.55;;;25.70;99.90;;;;;;5053392;28;20039;-60
2023/07/29 11:15:19;;;;;;;3.33;2.40;;;25.80;99.90;;;;;;5053389;28;20033;-61
2023/07/29 11:17:49;;;;;;;4.45;2.22;;;25.80;99.90;;;;;;5053233;28;20571;-60
2023/07/29 11:20:16;;;;;;;2.63;2.10;;;25.80;99.90;;;;;;5052905;28;20075;-61
2023/07/29 11:22:42;;;;;;;2.28;1.75;;;25.90;99.90;;;;;;5052819;28;20032;-60
2023/07/29 11:25:10;;;;;;;3.30;1.90;;;26.00;99.90;;;;;;5053349;28;20057;-61
2023/07/29 11:27:37;;;;;;;2.00;1.77;;;26.00;99.90;;;;;;5052808;28;20047;-60
2023/07/29 11:30:10;;;;;;;4.50;2.00;;;26.00;99.90;;;;;;5052961;28;20048;-60
2023/07/29 11:32:37;;;;;;;;;;;25.90;99.90;;;;;;5053650;28;20139;-61
2023/07/29 11:35:16;;;;;;;2.33;2.10;;;25.80;99.90;;;;;;5052913;28;19924;-61
2023/07/29 11:37:46;;;;;;;2.50;1.92;;;25.80;99.90;;;;;;5052852;28;20018;-61
2023/07/29 11:40:17;;;;;;;2.00;1.60;;;25.90;99.90;;;;;;5052827;28;20103;-60
2023/07/29 11:42:43;;;;;;;2.03;1.50;;;25.90;99.90;;;;;;5052539;28;20516;-61
2023/07/29 11:45:09;;;;;;;2.92;1.50;;;26.10;99.90;;;;;;5052677;28;20486;-60
2023/07/29 11:47:36;;;;;;;1.77;1.45;;;26.20;99.90;;;;;;5052574;28;20037;-61
2023/07/29 11:50:03;;;;;;;1.58;1.48;;;26.30;99.90;;;;;;5051544;28;20488;-60
2023/07/29 11:52:32;;;;;;;1.30;1.20;;;26.30;99.90;;;;;;5052576;28;20047;-60
2023/07/29 11:54:58;;;;;;;1.35;1.20;;;26.30;99.90;;;;;;5052337;28;20490;-60
2023/07/29 11:57:24;;;;;;;3.10;1.40;;;26.50;99.90;;;;;;5052577;28;20025;-61
2023/07/29 11:59:50;;;;;;;2.38;1.48;;;26.80;99.90;;;;;;5052813;28;20044;-60
2023/07/29 12:02:19;;;;;;;1.55;1.45;;;27.10;99.90;;;;;;5052235;28;20425;-61
2023/07/29 12:04:47;;;;;;;2.10;1.55;;;27.40;99.90;;;;;;5052057;28;20037;-61
2023/07/29 12:07:14;;;;;;;1.95;1.70;;;27.50;99.90;;;;;;5052378;28;20052;-61
2023/07/29 12:09:41;;;;;;;3.00;1.95;;;27.60;99.90;;;;;;5052161;28;20040;-61
2023/07/29 12:12:08;;;;;;;3.90;2.00;;;27.40;99.90;;;;;;5052488;28;20033;-61
2023/07/29 12:14:34;;;;;;;2.42;1.63;;;27.20;99.90;;;;;;5051982;28;20037;-60
2023/07/29 12:17:01;;;;;;;1.95;1.70;;;27.30;99.90;;;;;;5051989;28;20063;-61
2023/07/29 12:19:35;;;;;;;2.80;2.17;;;27.30;99.90;;;;;;5051507;28;20024;-61
2023/07/29 12:22:03;;;;;;;3.25;2.05;;;27.10;99.90;;;;;;5052103;28;20032;-60
2023/07/29 12:24:35;;;;;;;3.17;1.80;;;27.00;99.90;;;;;;5050850;28;20094;-61
2023/07/29 12:27:01;;;;;;;2.47;2.00;;;26.90;99.90;;;;;;5051959;28;20097;-61
2023/07/29 12:29:27;;;;;;;2.85;1.80;;;27.10;99.90;;;;;;5051793;28;20017;-61
2023/07/29 12:32:03;;;;;;;2.15;1.60;;;27.20;99.90;;;;;;5051784;28;20029;-61
2023/07/29 12:34:30;;;;;;;2.55;1.95;;;27.10;99.90;;;;;;5051292;28;20031;-60
2023/07/29 12:36:58;;;;;;;2.53;1.73;;;27.00;99.90;;;;;;5052090;28;20025;-60
2023/07/29 12:39:28;;;;;;;4.18;1.90;;;27.00;99.90;;;;;;5051703;28;20036;-60
2023/07/29 12:41:56;;;;;;;1.70;1.40;;;27.10;99.90;;;;;;5051764;28;20029;-60
2023/07/29 12:44:32;;;;;;;2.05;1.48;;;27.10;99.90;;;;;;5051618;28;20331;-60
2023/07/29 12:46:58;;;;;;;1.88;1.70;;;26.90;99.90;;;;;;5051407;28;20025;-61
2023/07/29 12:49:24;;;;;;;2.25;1.70;;;26.80;99.90;;;;;;5051153;28;20017;-60